sensor_id;sensor_type;location;lat;lon;timestamp;temperature;humidity
41547;DHT22;27271;45.412;10.852;2024-01-11T05:01:17;-1.30;1.00
41547;DHT22;27271;45.412;10.852;2024-01-11T05:04:39;-1.40;1.00
41547;DHT22;27271;45.412;10.852;2024-01-11T05:08:01;-1.30;1.00
41547;DHT22;27271;45.412;10.852;2024-01-11T05:11:24;-1.20;1.00
41547;DHT22;27271;45.412;10.852;2024-01-11T05:14:47;-1.30;1.00
41547;DHT22;27271;45.412;10.852;2024-01-11T05:18:09;-1.60;1.00
41547;DHT22;27271;45.412;10.852;2024-01-11T05:21:32;-1.80;1.00
41547;DHT22;27271;45.412;10.852;2024-01-11T05:24:54;-1.70;1.00
41547;DHT22;27271;45.412;10.852;2024-01-11T05:28:16;-1.90;1.00
41547;DHT22;27271;45.412;10.852;2024-01-11T05:31:39;-2.10;5.50
41547;DHT22;27271;45.412;10.852;2024-01-11T05:35:01;-1.90;38.10
41547;DHT22;27271;45.412;10.852;2024-01-11T05:38:24;-1.90;35.70
41547;DHT22;27271;45.412;10.852;2024-01-11T05:41:46;-1.90;63.60
41547;DHT22;27271;45.412;10.852;2024-01-11T05:45:11;-1.80;81.60
41547;DHT22;27271;45.412;10.852;2024-01-11T05:48:38;-1.70;60.90
41547;DHT22;27271;45.412;10.852;2024-01-11T05:52:01;-1.80;64.80
41547;DHT22;27271;45.412;10.852;2024-01-11T05:55:23;-2.10;86.10
41547;DHT22;27271;45.412;10.852;2024-01-11T05:58:45;-2.30;93.80
41547;DHT22;27271;45.412;10.852;2024-01-11T06:02:08;-2.40;99.90
41547;DHT22;27271;45.412;10.852;2024-01-11T06:05:34;-2.50;99.90
41547;DHT22;27271;45.412;10.852;2024-01-11T06:08:56;-2.50;99.90
41547;DHT22;27271;45.412;10.852;2024-01-11T06:12:19;-2.10;99.90
41547;DHT22;27271;45.412;10.852;2024-01-11T06:15:41;-1.90;99.90
41547;DHT22;27271;45.412;10.852;2024-01-11T06:19:04;-1.90;99.90
41547;DHT22;27271;45.412;10.852;2024-01-11T06:22:26;-2.10;99.90
41547;DHT22;27271;45.412;10.852;2024-01-11T06:25:51;-2.30;99.90
41547;DHT22;27271;45.412;10.852;2024-01-11T06:29:13;-2.50;99.90
41547;DHT22;27271;45.412;10.852;2024-01-11T06:32:35;-2.60;99.90
41547;DHT22;27271;45.412;10.852;2024-01-11T06:35:58;-2.80;99.90
41547;DHT22;27271;45.412;10.852;2024-01-11T06:39:21;-2.90;99.90
41547;DHT22;27271;45.412;10.852;2024-01-11T06:42:43;-2.70;99.90
41547;DHT22;27271;45.412;10.852;2024-01-11T06:46:06;-2.50;99.90
41547;DHT22;27271;45.412;10.852;2024-01-11T06:49:28;-2.40;99.90
41547;DHT22;27271;45.412;10.852;2024-01-11T06:52:50;-2.20;99.90
41547;DHT22;27271;45.412;10.852;2024-01-11T06:56:14;-2.10;99.90
41547;DHT22;27271;45.412;10.852;2024-01-11T06:59:37;-2.30;99.90
41547;DHT22;27271;45.412;10.852;2024-01-11T07:03:03;-2.40;99.90
41547;DHT22;27271;45.412;10.852;2024-01-11T07:06:26;-2.50;99.90
41547;DHT22;27271;45.412;10.852;2024-01-11T07:09:48;-2.60;99.90
41547;DHT22;27271;45.412;10.852;2024-01-11T07:13:10;-2.50;99.90
41547;DHT22;27271;45.412;10.852;2024-01-11T07:16:33;-2.50;99.90
41547;DHT22;27271;45.412;10.852;2024-01-11T07:19:56;-2.40;99.90
41547;DHT22;27271;45.412;10.852;2024-01-11T07:23:18;-2.20;99.90
41547;DHT22;27271;45.412;10.852;2024-01-11T07:26:41;-2.20;99.90
41547;DHT22;27271;45.412;10.852;2024-01-11T07:30:04;-2.10;99.90
41547;DHT22;27271;45.412;10.852;2024-01-11T07:33:30;-2.10;99.90
41547;DHT22;27271;45.412;10.852;2024-01-11T07:36:53;-2.00;99.90
41547;DHT22;27271;45.412;10.852;2024-01-11T07:40:15;-1.80;99.90
41547;DHT22;27271;45.412;10.852;2024-01-11T07:43:38;-1.30;99.90
41547;DHT22;27271;45.412;10.852;2024-01-11T07:47:14;-0.80;99.90
41547;DHT22;27271;45.412;10.852;2024-01-11T07:50:37;0.20;99.90
41547;DHT22;27271;45.412;10.852;2024-01-11T07:53:59;1.50;1.00
41547;DHT22;27271;45.412;10.852;2024-01-11T07:57:23;2.90;1.00
41547;DHT22;27271;45.412;10.852;2024-01-11T08:00:49;4.10;1.00
41547;DHT22;27271;45.412;10.852;2024-01-11T08:04:12;5.10;99.90
41547;DHT22;27271;45.412;10.852;2024-01-11T08:07:35;6.00;99.90
41547;DHT22;27271;45.412;10.852;2024-01-11T08:11:02;6.70;99.90
41547;DHT22;27271;45.412;10.852;2024-01-11T08:14:28;7.50;99.90
41547;DHT22;27271;45.412;10.852;2024-01-11T08:18:04;7.40;99.90
41547;DHT22;27271;45.412;10.852;2024-01-11T08:21:27;7.20;99.90
41547;DHT22;27271;45.412;10.852;2024-01-11T08:24:50;6.90;99.90
41547;DHT22;27271;45.412;10.852;2024-01-11T08:28:13;6.60;99.90
41547;DHT22;27271;45.412;10.852;2024-01-11T08:31:38;6.60;99.90
41547;DHT22;27271;45.412;10.852;2024-01-11T08:35:05;6.90;99.90
41547;DHT22;27271;45.412;10.852;2024-01-11T08:38:29;6.80;99.90
41547;DHT22;27271;45.412;10.852;2024-01-11T08:41:57;7.20;99.90
41547;DHT22;27271;45.412;10.852;2024-01-11T08:45:26;7.10;99.90
41547;DHT22;27271;45.412;10.852;2024-01-11T08:48:48;7.20;99.90
41547;DHT22;27271;45.412;10.852;2024-01-11T08:52:10;7.30;99.90
41547;DHT22;27271;45.412;10.852;2024-01-11T08:55:35;7.60;99.90
41547;DHT22;27271;45.412;10.852;2024-01-11T08:58:57;8.20;99.90
41547;DHT22;27271;45.412;10.852;2024-01-11T09:02:21;8.00;99.90
41547;DHT22;27271;45.412;10.852;2024-01-11T09:05:53;7.80;99.90
41547;DHT22;27271;45.412;10.852;2024-01-11T09:09:19;8.10;99.90
41547;DHT22;27271;45.412;10.852;2024-01-11T09:12:41;8.20;99.90
41547;DHT22;27271;45.412;10.852;2024-01-11T09:16:04;8.10;99.90
41547;DHT22;27271;45.412;10.852;2024-01-11T09:19:26;8.20;99.90
41547;DHT22;27271;45.412;10.852;2024-01-11T09:22:48;8.60;99.90
41547;DHT22;27271;45.412;10.852;2024-01-11T09:26:12;9.40;99.90
41547;DHT22;27271;45.412;10.852;2024-01-11T09:29:34;9.40;99.90
41547;DHT22;27271;45.412;10.852;2024-01-11T09:32:56;9.10;99.90
41547;DHT22;27271;45.412;10.852;2024-01-11T09:36:19;9.40;99.90
41547;DHT22;27271;45.412;10.852;2024-01-11T09:39:41;10.00;99.90
41547;DHT22;27271;45.412;10.852;2024-01-11T09:43:08;9.70;99.90
41547;DHT22;27271;45.412;10.852;2024-01-11T09:46:43;9.90;99.90
41547;DHT22;27271;45.412;10.852;2024-01-11T09:50:07;10.50;99.90
41547;DHT22;27271;45.412;10.852;2024-01-11T09:53:32;10.20;99.90
41547;DHT22;27271;45.412;10.852;2024-01-11T09:56:59;9.80;99.90
41547;DHT22;27271;45.412;10.852;2024-01-11T10:00:23;9.20;99.90
41547;DHT22;27271;45.412;10.852;2024-01-11T10:03:46;8.70;99.90
41547;DHT22;27271;45.412;10.852;2024-01-11T10:07:08;8.10;99.90
41547;DHT22;27271;45.412;10.852;2024-01-11T10:10:31;7.90;99.90
41547;DHT22;27271;45.412;10.852;2024-01-11T10:14:00;8.30;99.90
41547;DHT22;27271;45.412;10.852;2024-01-11T10:17:24;8.50;99.90
41547;DHT22;27271;45.412;10.852;2024-01-11T10:20:51;8.80;99.90
41547;DHT22;27271;45.412;10.852;2024-01-11T10:24:18;9.10;99.90
41547;DHT22;27271;45.412;10.852;2024-01-11T10:27:44;9.10;99.90
41547;DHT22;27271;45.412;10.852;2024-01-11T10:31:08;8.80;99.90
41547;DHT22;27271;45.412;10.852;2024-01-11T10:34:31;8.60;99.90
41547;DHT22;27271;45.412;10.852;2024-01-11T10:37:53;8.60;99.90
41547;DHT22;27271;45.412;10.852;2024-01-11T10:41:18;8.40;99.90
41547;DHT22;27271;45.412;10.852;2024-01-11T10:44:46;8.80;99.90
41547;DHT22;27271;45.412;10.852;2024-01-11T10:48:15;9.00;99.90
41547;DHT22;27271;45.412;10.852;2024-01-11T10:51:39;9.20;99.90
41547;DHT22;27271;45.412;10.852;2024-01-11T10:55:02;9.40;99.90
41547;DHT22;27271;45.412;10.852;2024-01-11T10:58:28;9.40;99.90
41547;DHT22;27271;45.412;10.852;2024-01-11T11:01:57;9.40;99.90
41547;DHT22;27271;45.412;10.852;2024-01-11T11:05:24;9.60;99.90
41547;DHT22;27271;45.412;10.852;2024-01-11T11:08:49;9.50;99.90
41547;DHT22;27271;45.412;10.852;2024-01-11T11:12:13;9.70;99.90
41547;DHT22;27271;45.412;10.852;2024-01-11T11:15:37;10.40;99.90
41547;DHT22;27271;45.412;10.852;2024-01-11T11:19:00;10.40;99.90
41547;DHT22;27271;45.412;10.852;2024-01-11T11:22:22;11.00;99.90
41547;DHT22;27271;45.412;10.852;2024-01-11T11:25:46;10.80;99.90
41547;DHT22;27271;45.412;10.852;2024-01-11T11:29:09;10.50;99.90
41547;DHT22;27271;45.412;10.852;2024-01-11T11:32:35;9.80;99.90
41547;DHT22;27271;45.412;10.852;2024-01-11T11:35:58;9.20;99.90
41547;DHT22;27271;45.412;10.852;2024-01-11T11:39:21;9.40;99.90
41547;DHT22;27271;45.412;10.852;2024-01-11T11:42:49;9.00;99.90
41547;DHT22;27271;45.412;10.852;2024-01-11T11:46:12;8.90;99.90
41547;DHT22;27271;45.412;10.852;2024-01-11T11:50:08;8.80;99.90
41547;DHT22;27271;45.412;10.852;2024-01-11T11:53:36;8.30;99.90
41547;DHT22;27271;45.412;10.852;2024-01-11T11:56:59;8.10;99.90
41547;DHT22;27271;45.412;10.852;2024-01-11T12:00:23;8.10;99.90
41547;DHT22;27271;45.412;10.852;2024-01-11T12:03:47;8.00;99.90
41547;DHT22;27271;45.412;10.852;2024-01-11T12:07:13;7.80;99.90
41547;DHT22;27271;45.412;10.852;2024-01-11T12:10:40;7.80;99.90
41547;DHT22;27271;45.412;10.852;2024-01-11T12:14:02;7.70;99.90
41547;DHT22;27271;45.412;10.852;2024-01-11T12:17:24;7.70;99.90
41547;DHT22;27271;45.412;10.852;2024-01-11T12:20:46;7.80;99.90
41547;DHT22;27271;45.412;10.852;2024-01-11T12:24:12;7.80;99.90
41547;DHT22;27271;45.412;10.852;2024-01-11T12:27:34;7.70;99.90
41547;DHT22;27271;45.412;10.852;2024-01-11T12:30:56;7.80;99.90
41547;DHT22;27271;45.412;10.852;2024-01-11T12:34:19;7.70;99.90
41547;DHT22;27271;45.412;10.852;2024-01-11T12:38:01;7.70;99.90
41547;DHT22;27271;45.412;10.852;2024-01-11T12:41:26;7.60;99.90
41547;DHT22;27271;45.412;10.852;2024-01-11T12:44:48;7.60;99.90
41547;DHT22;27271;45.412;10.852;2024-01-11T12:48:16;7.60;99.90
41547;DHT22;27271;45.412;10.852;2024-01-11T12:51:42;7.60;99.90
41547;DHT22;27271;45.412;10.852;2024-01-11T12:55:13;7.40;99.90
41547;DHT22;27271;45.412;10.852;2024-01-11T12:58:40;7.50;99.90
41547;DHT22;27271;45.412;10.852;2024-01-11T13:02:02;7.50;99.90
41547;DHT22;27271;45.412;10.852;2024-01-11T13:05:26;7.40;99.90
41547;DHT22;27271;45.412;10.852;2024-01-11T13:08:54;7.40;99.90
41547;DHT22;27271;45.412;10.852;2024-01-11T13:12:16;7.30;99.90
41547;DHT22;27271;45.412;10.852;2024-01-11T13:15:39;7.30;99.90
41547;DHT22;27271;45.412;10.852;2024-01-11T13:19:01;7.20;99.90
41547;DHT22;27271;45.412;10.852;2024-01-11T13:22:34;7.20;99.90
41547;DHT22;27271;45.412;10.852;2024-01-11T13:25:56;7.20;99.90
41547;DHT22;27271;45.412;10.852;2024-01-11T13:29:18;7.30;99.90
41547;DHT22;27271;45.412;10.852;2024-01-11T13:32:41;7.30;99.90
41547;DHT22;27271;45.412;10.852;2024-01-11T13:36:04;7.20;99.90
41547;DHT22;27271;45.412;10.852;2024-01-11T13:39:26;7.20;99.90
41547;DHT22;27271;45.412;10.852;2024-01-11T13:42:50;7.10;99.90
41547;DHT22;27271;45.412;10.852;2024-01-11T13:46:12;7.20;99.90
41547;DHT22;27271;45.412;10.852;2024-01-11T13:49:38;7.30;99.90
41547;DHT22;27271;45.412;10.852;2024-01-11T13:53:00;7.20;99.90
41547;DHT22;27271;45.412;10.852;2024-01-11T13:56:24;7.30;99.90
41547;DHT22;27271;45.412;10.852;2024-01-11T13:59:46;7.20;99.90
41547;DHT22;27271;45.412;10.852;2024-01-11T14:03:10;7.30;99.90
41547;DHT22;27271;45.412;10.852;2024-01-11T14:06:32;7.20;99.90
41547;DHT22;27271;45.412;10.852;2024-01-11T14:09:54;7.20;99.90
41547;DHT22;27271;45.412;10.852;2024-01-11T14:13:17;7.10;99.90
41547;DHT22;27271;45.412;10.852;2024-01-11T14:16:39;7.10;99.90
41547;DHT22;27271;45.412;10.852;2024-01-11T14:20:01;7.30;99.90
41547;DHT22;27271;45.412;10.852;2024-01-11T14:23:25;7.30;99.90
41547;DHT22;27271;45.412;10.852;2024-01-11T14:26:47;7.20;99.90
41547;DHT22;27271;45.412;10.852;2024-01-11T14:30:10;7.30;99.90
41547;DHT22;27271;45.412;10.852;2024-01-11T14:33:32;7.20;99.90
41547;DHT22;27271;45.412;10.852;2024-01-11T14:36:58;7.20;99.90
41547;DHT22;27271;45.412;10.852;2024-01-11T14:40:23;7.10;99.90
41547;DHT22;27271;45.412;10.852;2024-01-11T14:43:48;7.10;99.90
41547;DHT22;27271;45.412;10.852;2024-01-11T14:47:11;6.90;99.90
41547;DHT22;27271;45.412;10.852;2024-01-11T14:50:33;6.90;99.90
41547;DHT22;27271;45.412;10.852;2024-01-11T14:53:55;6.70;99.90
41547;DHT22;27271;45.412;10.852;2024-01-11T14:57:22;6.60;99.90
41547;DHT22;27271;45.412;10.852;2024-01-11T15:00:45;6.50;99.90
41547;DHT22;27271;45.412;10.852;2024-01-11T15:04:07;6.40;99.90
41547;DHT22;27271;45.412;10.852;2024-01-11T15:07:29;6.40;99.90
41547;DHT22;27271;45.412;10.852;2024-01-11T15:10:51;6.20;99.90
41547;DHT22;27271;45.412;10.852;2024-01-11T15:14:14;5.90;99.90
41547;DHT22;27271;45.412;10.852;2024-01-11T15:17:36;5.60;99.90
41547;DHT22;27271;45.412;10.852;2024-01-11T15:20:58;5.40;99.90
41547;DHT22;27271;45.412;10.852;2024-01-11T15:24:21;5.20;99.90
41547;DHT22;27271;45.412;10.852;2024-01-11T15:27:46;5.30;99.90
41547;DHT22;27271;45.412;10.852;2024-01-11T15:31:08;5.20;99.90
41547;DHT22;27271;45.412;10.852;2024-01-11T15:34:30;5.10;99.90
41547;DHT22;27271;45.412;10.852;2024-01-11T15:37:53;4.80;99.90
41547;DHT22;27271;45.412;10.852;2024-01-11T15:41:15;4.90;99.90
41547;DHT22;27271;45.412;10.852;2024-01-11T15:44:44;4.60;99.90
41547;DHT22;27271;45.412;10.852;2024-01-11T15:48:07;4.60;1.00
41547;DHT22;27271;45.412;10.852;2024-01-11T15:51:29;4.30;1.00
41547;DHT22;27271;45.412;10.852;2024-01-11T15:54:52;4.00;1.00
41547;DHT22;27271;45.412;10.852;2024-01-11T15:58:15;4.10;1.00
41547;DHT22;27271;45.412;10.852;2024-01-11T16:01:38;3.80;1.00
41547;DHT22;27271;45.412;10.852;2024-01-11T16:05:20;3.50;1.00
41547;DHT22;27271;45.412;10.852;2024-01-11T16:08:42;3.30;1.00
41547;DHT22;27271;45.412;10.852;2024-01-11T16:12:06;3.10;1.00
41547;DHT22;27271;45.412;10.852;2024-01-11T16:15:28;2.80;1.00
41547;DHT22;27271;45.412;10.852;2024-01-11T16:18:50;2.70;13.80
41547;DHT22;27271;45.412;10.852;2024-01-11T16:22:12;2.60;29.30
41547;DHT22;27271;45.412;10.852;2024-01-11T16:25:35;2.40;79.60
41547;DHT22;27271;45.412;10.852;2024-01-11T16:28:57;2.60;95.20
41547;DHT22;27271;45.412;10.852;2024-01-11T16:32:19;2.70;82.20
41547;DHT22;27271;45.412;10.852;2024-01-11T16:35:41;2.80;67.30
41547;DHT22;27271;45.412;10.852;2024-01-11T16:39:19;2.90;49.30
41547;DHT22;27271;45.412;10.852;2024-01-11T16:42:41;2.90;25.30
41547;DHT22;27271;45.412;10.852;2024-01-11T16:46:04;3.00;1.70
41547;DHT22;27271;45.412;10.852;2024-01-11T16:49:26;3.00;2.60
41547;DHT22;27271;45.412;10.852;2024-01-11T16:52:48;3.00;1.00
41547;DHT22;27271;45.412;10.852;2024-01-11T16:56:11;2.80;8.30
41547;DHT22;27271;45.412;10.852;2024-01-11T16:59:33;2.70;20.50
41547;DHT22;27271;45.412;10.852;2024-01-11T17:03:03;2.70;22.80
41547;DHT22;27271;45.412;10.852;2024-01-11T17:06:26;2.60;22.70
41547;DHT22;27271;45.412;10.852;2024-01-11T17:09:48;2.60;21.30
41547;DHT22;27271;45.412;10.852;2024-01-11T17:13:11;2.50;36.90
41547;DHT22;27271;45.412;10.852;2024-01-11T17:16:33;2.30;56.30
41547;DHT22;27271;45.412;10.852;2024-01-11T17:19:57;2.10;93.50
41547;DHT22;27271;45.412;10.852;2024-01-11T17:23:19;2.10;99.90
41547;DHT22;27271;45.412;10.852;2024-01-11T17:26:42;2.20;99.90
41547;DHT22;27271;45.412;10.852;2024-01-11T17:30:07;2.30;94.00
41547;DHT22;27271;45.412;10.852;2024-01-11T17:33:31;2.20;99.90
41547;DHT22;27271;45.412;10.852;2024-01-11T17:36:53;2.10;99.90
41547;DHT22;27271;45.412;10.852;2024-01-11T17:40:15;2.10;99.90
41547;DHT22;27271;45.412;10.852;2024-01-11T17:43:37;2.20;99.90
41547;DHT22;27271;45.412;10.852;2024-01-11T17:47:00;2.10;99.50
41547;DHT22;27271;45.412;10.852;2024-01-11T17:50:22;1.80;99.90
41547;DHT22;27271;45.412;10.852;2024-01-11T17:53:44;1.60;99.90
41547;DHT22;27271;45.412;10.852;2024-01-11T17:57:08;1.40;99.90
41547;DHT22;27271;45.412;10.852;2024-01-11T18:00:30;1.20;99.90
41547;DHT22;27271;45.412;10.852;2024-01-11T18:03:53;1.10;99.90
41547;DHT22;27271;45.412;10.852;2024-01-11T18:07:16;1.20;99.90
41547;DHT22;27271;45.412;10.852;2024-01-11T18:10:39;1.10;99.90
41547;DHT22;27271;45.412;10.852;2024-01-11T18:14:01;0.90;99.90
41547;DHT22;27271;45.412;10.852;2024-01-11T18:17:24;0.80;99.90
41547;DHT22;27271;45.412;10.852;2024-01-11T18:20:47;0.60;99.90
41547;DHT22;27271;45.412;10.852;2024-01-11T18:24:12;0.50;99.90
41547;DHT22;27271;45.412;10.852;2024-01-11T18:27:35;0.40;99.90
41547;DHT22;27271;45.412;10.852;2024-01-11T18:31:07;0.40;99.90
41547;DHT22;27271;45.412;10.852;2024-01-11T18:34:31;0.20;99.90
41547;DHT22;27271;45.412;10.852;2024-01-11T18:37:53;0.20;99.90
41547;DHT22;27271;45.412;10.852;2024-01-11T18:41:17;0.30;99.90
41547;DHT22;27271;45.412;10.852;2024-01-11T18:44:40;0.30;99.90
41547;DHT22;27271;45.412;10.852;2024-01-11T18:48:04;0.20;99.90
41547;DHT22;27271;45.412;10.852;2024-01-11T18:51:31;0.00;99.90
41547;DHT22;27271;45.412;10.852;2024-01-11T18:54:54;0.00;99.90
41547;DHT22;27271;45.412;10.852;2024-01-11T18:58:33;-0.10;99.90
41547;DHT22;27271;45.412;10.852;2024-01-11T19:01:57;-0.20;99.90
41547;DHT22;27271;45.412;10.852;2024-01-11T19:05:19;-0.20;99.90
41547;DHT22;27271;45.412;10.852;2024-01-11T19:08:42;-0.30;99.90
41547;DHT22;27271;45.412;10.852;2024-01-11T19:12:04;-0.20;1.00
41547;DHT22;27271;45.412;10.852;2024-01-11T19:15:27;-0.30;1.00
41547;DHT22;27271;45.412;10.852;2024-01-11T19:18:49;0.00;1.00
41547;DHT22;27271;45.412;10.852;2024-01-11T19:22:14;0.00;1.00
41547;DHT22;27271;45.412;10.852;2024-01-11T19:25:44;0.20;1.00
41547;DHT22;27271;45.412;10.852;2024-01-11T19:29:08;0.20;1.00
41547;DHT22;27271;45.412;10.852;2024-01-11T19:32:30;0.20;1.00
41547;DHT22;27271;45.412;10.852;2024-01-11T19:35:53;0.20;1.00
41547;DHT22;27271;45.412;10.852;2024-01-11T19:39:19;0.20;1.00
41547;DHT22;27271;45.412;10.852;2024-01-11T19:42:41;0.30;1.00
41547;DHT22;27271;45.412;10.852;2024-01-11T19:46:04;0.20;1.00
41547;DHT22;27271;45.412;10.852;2024-01-11T19:49:31;0.20;1.00
41547;DHT22;27271;45.412;10.852;2024-01-11T19:52:54;0.30;1.00
41547;DHT22;27271;45.412;10.852;2024-01-11T19:56:17;0.10;1.00
41547;DHT22;27271;45.412;10.852;2024-01-11T19:59:41;0.40;1.00
41547;DHT22;27271;45.412;10.852;2024-01-11T20:03:04;0.70;1.00
41547;DHT22;27271;45.412;10.852;2024-01-11T20:06:26;0.70;99.90
41547;DHT22;27271;45.412;10.852;2024-01-11T20:09:52;0.40;99.90
41547;DHT22;27271;45.412;10.852;2024-01-11T20:13:15;0.10;99.90
41547;DHT22;27271;45.412;10.852;2024-01-11T20:16:37;-0.10;99.90
41547;DHT22;27271;45.412;10.852;2024-01-11T20:20:00;-0.20;99.90
41547;DHT22;27271;45.412;10.852;2024-01-11T20:23:26;-0.50;99.90
41547;DHT22;27271;45.412;10.852;2024-01-11T20:26:48;-0.70;99.90
41547;DHT22;27271;45.412;10.852;2024-01-11T20:30:11;-0.90;99.90
41547;DHT22;27271;45.412;10.852;2024-01-11T20:33:35;-0.90;1.00
41547;DHT22;27271;45.412;10.852;2024-01-11T20:37:00;-1.00;1.00
41547;DHT22;27271;45.412;10.852;2024-01-11T20:40:23;-1.00;1.00
41547;DHT22;27271;45.412;10.852;2024-01-11T20:43:45;-1.00;1.00
41547;DHT22;27271;45.412;10.852;2024-01-11T20:47:07;-0.90;1.00
41547;DHT22;27271;45.412;10.852;2024-01-11T20:50:29;-0.90;1.00
41547;DHT22;27271;45.412;10.852;2024-01-11T20:53:51;-0.90;1.00
41547;DHT22;27271;45.412;10.852;2024-01-11T20:57:18;-1.00;1.00
41547;DHT22;27271;45.412;10.852;2024-01-11T21:00:40;-1.10;1.00
41547;DHT22;27271;45.412;10.852;2024-01-11T21:04:02;-1.20;1.00
41547;DHT22;27271;45.412;10.852;2024-01-11T21:07:24;-1.30;1.00
41547;DHT22;27271;45.412;10.852;2024-01-11T21:10:48;-1.10;1.00
41547;DHT22;27271;45.412;10.852;2024-01-11T21:14:10;-1.20;1.00
41547;DHT22;27271;45.412;10.852;2024-01-11T21:17:34;-1.30;1.00
41547;DHT22;27271;45.412;10.852;2024-01-11T21:20:56;-1.40;1.00
41547;DHT22;27271;45.412;10.852;2024-01-11T21:24:24;-1.30;1.00
41547;DHT22;27271;45.412;10.852;2024-01-11T21:27:46;-1.30;1.00
41547;DHT22;27271;45.412;10.852;2024-01-11T21:31:08;-1.40;1.00
41547;DHT22;27271;45.412;10.852;2024-01-11T21:34:31;-1.40;1.00
41547;DHT22;27271;45.412;10.852;2024-01-11T21:37:53;-1.50;1.00
41547;DHT22;27271;45.412;10.852;2024-01-11T21:41:15;-1.60;1.00
41547;DHT22;27271;45.412;10.852;2024-01-11T21:44:38;-1.70;1.00
41547;DHT22;27271;45.412;10.852;2024-01-11T21:48:00;-1.70;1.00
41547;DHT22;27271;45.412;10.852;2024-01-11T21:51:22;-1.70;1.00
41547;DHT22;27271;45.412;10.852;2024-01-11T21:54:45;-1.70;1.00
41547;DHT22;27271;45.412;10.852;2024-01-11T21:58:07;-1.50;10.40
41547;DHT22;27271;45.412;10.852;2024-01-11T22:01:29;-1.60;1.00
41547;DHT22;27271;45.412;10.852;2024-01-11T22:04:55;-1.70;1.00
41547;DHT22;27271;45.412;10.852;2024-01-11T22:08:18;-1.70;1.00
41547;DHT22;27271;45.412;10.852;2024-01-11T22:11:41;-1.70;1.00
41547;DHT22;27271;45.412;10.852;2024-01-11T22:15:03;-1.60;1.00
41547;DHT22;27271;45.412;10.852;2024-01-11T22:18:29;-1.70;1.00
41547;DHT22;27271;45.412;10.852;2024-01-11T22:21:56;-1.90;1.00
41547;DHT22;27271;45.412;10.852;2024-01-11T22:25:18;-2.00;1.00
41547;DHT22;27271;45.412;10.852;2024-01-11T22:28:45;-2.00;1.00
41547;DHT22;27271;45.412;10.852;2024-01-11T22:32:13;-2.00;1.00
41547;DHT22;27271;45.412;10.852;2024-01-11T22:35:35;-2.10;1.00
41547;DHT22;27271;45.412;10.852;2024-01-11T22:38:58;-2.20;1.00
41547;DHT22;27271;45.412;10.852;2024-01-11T22:42:21;-2.30;1.00
41547;DHT22;27271;45.412;10.852;2024-01-11T22:45:43;-2.30;1.00
41547;DHT22;27271;45.412;10.852;2024-01-11T22:49:12;-2.30;1.00
41547;DHT22;27271;45.412;10.852;2024-01-11T22:52:34;-2.30;1.00
41547;DHT22;27271;45.412;10.852;2024-01-11T22:55:57;-2.30;1.00
41547;DHT22;27271;45.412;10.852;2024-01-11T22:59:19;-2.00;1.00
41547;DHT22;27271;45.412;10.852;2024-01-11T23:02:41;-2.00;1.00
41547;DHT22;27271;45.412;10.852;2024-01-11T23:06:04;-2.10;1.00
41547;DHT22;27271;45.412;10.852;2024-01-11T23:09:27;-2.10;1.00
41547;DHT22;27271;45.412;10.852;2024-01-11T23:12:49;-2.10;1.00
41547;DHT22;27271;45.412;10.852;2024-01-11T23:16:11;-2.30;1.00
41547;DHT22;27271;45.412;10.852;2024-01-11T23:19:33;-2.40;1.00
41547;DHT22;27271;45.412;10.852;2024-01-11T23:22:56;-2.30;1.00
41547;DHT22;27271;45.412;10.852;2024-01-11T23:26:18;-2.20;1.00
41547;DHT22;27271;45.412;10.852;2024-01-11T23:29:40;-2.30;1.00
